Time;durP1;ratioP1;P1;durP2;ratioP2;P2;SDS_P1;SDS_P2;PMS_P1;PMS_P2;Temp;Humidity;BMP_temperature;BMP_pressure;BME280_temperature;BME280_humidity;BME280_pressure;Samples;Min_cycle;Max_cycle;Signal;HPM_P1;HPM_P2
2022/05/21 00:00:21;;;;;;;7.97;4.22;;;;;;;21.71;62.15;98003.66;5416748;26;20364;-75
2022/05/21 00:02:49;;;;;;;7.50;4.12;;;;;;;21.64;62.34;98008.59;5439087;26;20086;-75
2022/05/21 00:05:18;;;;;;;11.70;4.78;;;;;;;21.89;61.30;98000.19;5421075;26;20023;-76
2022/05/21 00:07:45;;;;;;;9.10;4.75;;;;;;;22.09;60.48;98006.31;5417477;26;20067;-76
2022/05/21 00:10:15;;;;;;;9.98;5.00;;;;;;;22.09;60.32;98011.56;5437573;26;20055;-76
2022/05/21 00:12:42;;;;;;;9.55;5.18;;;;;;;21.34;63.36;98009.50;5437387;26;20055;-76
2022/05/21 00:15:12;;;;;;;12.13;5.40;;;;;;;21.26;63.33;98017.22;5437020;26;20052;-76
2022/05/21 00:17:39;;;;;;;10.60;5.15;;;;;;;20.66;65.98;98013.59;5417009;26;20110;-76
2022/05/21 00:20:47;;;;;;;8.95;5.18;;;;;;;19.67;70.43;98006.88;5437530;26;20059;-75
2022/05/21 00:22:54;;;;;;;;;;;;;;;20.25;68.17;98014.41;5432349;26;141134;-75
2022/05/21 00:25:21;;;;;;;13.17;5.67;;;;;;;20.05;69.17;98013.41;5437445;26;19962;-75
2022/05/21 00:27:48;;;;;;;9.85;5.32;;;;;;;20.75;66.67;98005.81;5416559;26;20731;-75
2022/05/21 00:30:15;;;;;;;12.27;5.03;;;;;;;20.81;66.40;97996.56;5437287;26;20091;-75
2022/05/21 00:32:42;;;;;;;10.27;4.82;;;;;;;20.22;68.73;98000.59;5437274;26;20109;-75
2022/05/21 00:35:10;;;;;;;10.68;5.18;;;;;;;20.29;68.65;97984.38;5436870;26;20070;-76
2022/05/21 00:37:37;;;;;;;10.80;5.07;;;;;;;20.31;68.91;97985.91;5416988;26;20082;-76
2022/05/21 00:40:04;;;;;;;13.38;5.18;;;;;;;20.14;69.75;97982.06;5437448;26;20366;-76
2022/05/21 00:42:31;;;;;;;8.75;4.87;;;;;;;20.03;70.09;97976.06;5436877;26;20683;-75
2022/05/21 00:44:58;;;;;;;10.15;4.90;;;;;;;20.44;68.79;97970.84;5437207;26;20081;-76
2022/05/21 00:47:26;;;;;;;10.02;5.50;;;;;;;20.45;68.66;97972.50;5437293;26;20068;-76
2022/05/21 00:49:53;;;;;;;10.88;5.32;;;;;;;20.44;68.95;97973.47;5436991;26;20490;-76
2022/05/21 00:52:23;;;;;;;12.00;5.07;;;;;;;20.66;68.49;97969.88;5437330;26;20130;-75
2022/05/21 00:54:54;;;;;;;9.40;5.07;;;;;;;20.78;68.32;97981.94;5416961;26;20067;-76
2022/05/21 00:57:28;;;;;;;12.50;5.37;;;;;;;20.64;68.67;97977.03;5416348;26;20074;-75
2022/05/21 01:00:25;;;;;;;11.45;5.03;;;;;;;20.75;68.78;97978.75;5416894;26;20118;-75
2022/05/21 01:02:57;;;;;;;11.75;5.05;;;;;;;20.73;68.79;97972.78;5417435;26;20706;-75
2022/05/21 01:05:26;;;;;;;10.05;5.15;;;;;;;20.69;68.93;97966.97;5416964;26;20508;-76
2022/05/21 01:07:58;;;;;;;10.23;5.05;;;;;;;20.68;68.67;97962.69;5436881;26;20054;-75
2022/05/21 01:10:27;;;;;;;9.98;5.28;;;;;;;20.42;69.61;97966.69;5416604;26;20125;-75
2022/05/21 01:12:56;;;;;;;10.30;5.53;;;;;;;20.53;69.26;97982.38;5416936;26;20114;-75
2022/05/21 01:15:29;;;;;;;10.70;5.40;;;;;;;20.41;69.24;97991.19;5398339;26;20119;-75
2022/05/21 01:17:56;;;;;;;10.68;5.35;;;;;;;20.08;70.50;97997.44;5416484;26;20115;-75
2022/05/21 01:20:36;;;;;;;12.00;5.50;;;;;;;19.68;72.33;98018.19;5437339;26;20090;-75
2022/05/21 01:23:03;;;;;;;10.40;6.05;;;;;;;19.49;74.37;98039.72;5416862;26;20106;-75
2022/05/21 01:25:31;;;;;;;11.00;5.65;;;;;;;19.58;75.60;98052.13;5436848;26;20464;-75
2022/05/21 01:27:58;;;;;;;12.02;5.97;;;;;;;19.74;75.69;98073.50;5437158;26;20106;-75
2022/05/21 01:30:39;;;;;;;9.98;5.30;;;;;;;19.77;75.70;98109.88;5436989;26;20043;-75
2022/05/21 01:33:09;;;;;;;10.90;5.00;;;;;;;20.09;74.36;98107.31;5398386;26;20063;-75
2022/05/21 01:35:37;;;;;;;11.75;5.28;;;;;;;20.34;72.07;98071.28;5437384;26;20056;-75
2022/05/21 01:38:05;;;;;;;9.63;5.03;;;;;;;20.71;70.33;98069.09;5436639;26;20106;-75
2022/05/21 01:40:32;;;;;;;9.95;5.10;;;;;;;20.71;69.89;98082.19;5416928;26;20121;-75
2022/05/21 01:45:45;;;;;;;10.57;5.12;;;;;;;20.60;70.20;98090.97;5436939;26;20063;-75
2022/05/21 01:48:18;;;;;;;11.65;5.12;;;;;;;20.82;68.39;98087.37;5436946;26;20302;-75
2022/05/21 01:50:52;;;;;;;10.73;5.03;;;;;;;21.27;65.40;98081.88;5437249;26;20038;-75
2022/05/21 01:53:20;;;;;;;18.00;4.80;;;;;;;21.87;62.83;98082.72;5416288;26;20054;-75
2022/05/21 01:55:48;;;;;;;24.77;6.80;;;;;;;22.20;61.52;98074.50;5437258;26;20065;-75
2022/05/21 01:58:16;;;;;;;17.40;5.18;;;;;;;22.56;60.40;98092.38;5436886;26;20119;-76
2022/05/21 02:00:43;;;;;;;20.55;5.65;;;;;;;22.61;60.78;98096.22;5436743;26;20110;-76
2022/05/21 02:03:16;;;;;;;16.52;5.43;;;;;;;22.72;60.71;98105.75;5436975;26;20062;-76
2022/05/21 02:05:46;;;;;;;11.60;4.85;;;;;;;22.66;61.29;98117.69;5436675;26;20119;-75
2022/05/21 02:08:14;;;;;;;12.55;5.18;;;;;;;22.67;61.69;98129.03;5436908;26;20389;-75
2022/05/21 02:10:42;;;;;;;16.08;5.15;;;;;;;22.67;61.80;98134.28;5437106;26;20475;-75
2022/05/21 02:13:17;;;;;;;10.50;4.90;;;;;;;22.78;61.40;98129.72;5436512;26;20102;-76
2022/05/21 02:15:45;;;;;;;13.27;5.28;;;;;;;22.29;63.29;98137.72;5437259;26;20070;-76
2022/05/21 02:18:12;;;;;;;11.35;4.87;;;;;;;22.24;63.82;98138.16;5436922;26;20114;-76
2022/05/21 02:20:40;;;;;;;12.10;5.22;;;;;;;22.21;64.14;98157.63;5436006;26;20410;-76
2022/05/21 02:23:08;;;;;;;10.88;5.05;;;;;;;22.28;64.43;98162.34;5436865;26;20121;-76
2022/05/21 02:25:34;;;;;;;13.02;5.10;;;;;;;22.04;65.71;98155.66;5436924;26;20399;-76
2022/05/21 02:28:02;;;;;;;13.35;4.37;;;;;;;21.95;66.24;98154.66;5436493;26;20138;-76
2022/05/21 02:30:29;;;;;;;10.15;4.90;;;;;;;21.87;67.52;98136.09;5416207;26;20053;-75
2022/05/21 02:32:56;;;;;;;10.75;4.87;;;;;;;21.67;68.77;98147.50;5436885;26;20058;-76
2022/05/21 02:35:23;;;;;;;11.20;4.90;;;;;;;21.71;69.08;98135.78;5436533;26;20063;-76
2022/05/21 02:40:35;;;;;;;7.82;4.12;;;;;;;21.80;69.18;98134.13;5437074;26;20102;-76
2022/05/21 02:43:02;;;;;;;9.48;4.15;;;;;;;21.55;69.82;98119.69;5416126;26;20055;-76
2022/05/21 02:45:29;;;;;;;9.95;4.35;;;;;;;21.50;70.29;98106.97;5436832;26;20051;-76
2022/05/21 02:47:57;;;;;;;11.60;4.07;;;;;;;21.71;69.69;98100.81;5436229;26;20123;-76
2022/05/21 02:50:27;;;;;;;9.63;3.40;;;;;;;21.71;69.36;98091.12;5417057;26;20463;-76
2022/05/21 02:52:54;;;;;;;11.05;4.57;;;;;;;21.42;70.37;98071.84;5437389;26;20023;-77
2022/05/21 02:55:21;;;;;;;14.52;4.15;;;;;;;21.46;70.78;98087.16;5416161;26;20067;-76
2022/05/21 02:57:48;;;;;;;8.60;4.20;;;;;;;21.47;70.26;98075.69;5436682;26;20528;-76
2022/05/21 03:00:22;;;;;;;9.68;4.25;;;;;;;21.54;70.31;98078.63;5436809;26;20098;-76
2022/05/21 03:02:49;;;;;;;9.20;3.50;;;;;;;21.30;71.55;98077.19;5436380;26;20055;-76
2022/05/21 03:05:16;;;;;;;9.80;3.20;;;;;;;21.15;71.90;98064.50;5436592;26;20075;-76
2022/05/21 03:07:46;;;;;;;12.07;3.30;;;;;;;21.04;71.94;98045.25;5416209;26;20779;-75
2022/05/21 03:10:21;;;;;;;8.95;2.78;;;;;;;20.70;73.64;98043.84;5416026;26;20465;-76
2022/05/21 03:13:00;;;;;;;9.90;3.78;;;;;;;20.66;73.90;98037.19;5417324;26;20073;-76
2022/05/21 03:15:33;;;;;;;7.10;3.10;;;;;;;20.76;74.24;98052.03;5436870;26;20110;-76
2022/05/21 03:18:03;;;;;;;9.18;3.55;;;;;;;20.67;74.53;98044.09;5436084;26;20055;-75
2022/05/21 03:20:29;;;;;;;5.90;3.30;;;;;;;20.77;74.20;98048.44;5416268;26;20099;-75
2022/05/21 03:22:57;;;;;;;8.38;3.53;;;;;;;20.73;74.13;98043.56;5436089;26;20058;-75
2022/05/21 03:25:23;;;;;;;9.50;3.92;;;;;;;20.70;74.36;98044.66;5436523;26;20160;-75
2022/05/21 03:27:51;;;;;;;9.35;3.72;;;;;;;20.79;74.71;98028.16;5436293;26;20527;-75
2022/05/21 03:30:22;;;;;;;7.25;3.53;;;;;;;20.80;74.75;98034.25;5436019;26;20103;-75
2022/05/21 03:32:49;;;;;;;7.75;3.50;;;;;;;20.80;74.81;98026.37;5437567;26;20129;-75
2022/05/21 03:35:16;;;;;;;11.65;3.92;;;;;;;20.31;76.95;98008.62;5437633;26;20118;-75
2022/05/21 03:37:44;;;;;;;10.38;4.32;;;;;;;20.41;77.27;97999.88;5437040;26;20067;-76
2022/05/21 03:40:14;;;;;;;9.85;4.47;;;;;;;20.46;77.26;97987.28;5437541;26;20115;-76
2022/05/21 03:42:41;;;;;;;9.10;4.10;;;;;;;20.38;77.17;97992.28;5437708;26;20402;-76
2022/05/21 03:45:09;;;;;;;8.68;3.78;;;;;;;20.48;76.76;97987.16;5437002;26;20074;-76
2022/05/21 03:47:36;;;;;;;8.60;3.67;;;;;;;20.58;76.05;97997.69;5417145;26;20567;-76
2022/05/21 03:50:03;;;;;;;9.00;4.43;;;;;;;20.64;76.06;98008.50;5437724;26;20051;-75
2022/05/21 03:52:31;;;;;;;10.80;3.92;;;;;;;20.60;76.16;98011.50;5436993;26;20055;-75
2022/05/21 03:54:59;;;;;;;9.55;3.78;;;;;;;21.13;74.00;98011.34;5437469;26;20051;-76
2022/05/21 03:57:26;;;;;;;8.23;3.83;;;;;;;21.04;73.65;98015.56;5437397;26;20102;-76
2022/05/21 03:59:53;;;;;;;9.98;3.50;;;;;;;21.09;73.46;98000.28;5416873;26;20390;-76
2022/05/21 04:02:20;;;;;;;9.35;3.95;;;;;;;21.52;71.88;97992.16;5437401;26;20118;-76
2022/05/21 04:04:47;;;;;;;11.50;3.95;;;;;;;21.44;72.24;97993.78;5437499;26;20214;-75
2022/05/21 04:07:14;;;;;;;8.95;3.90;;;;;;;21.59;72.34;97992.44;5437225;26;20065;-75
2022/05/21 04:09:42;;;;;;;9.43;3.65;;;;;;;21.41;73.00;97991.44;5437522;26;20102;-75
2022/05/21 04:12:10;;;;;;;8.45;3.60;;;;;;;20.99;74.88;97979.25;5437181;26;20146;-75
2022/05/21 04:14:37;;;;;;;9.18;3.70;;;;;;;21.27;73.29;97979.53;5437452;26;20126;-76
2022/05/21 04:17:05;;;;;;;8.77;3.65;;;;;;;21.42;72.34;97991.28;5437421;26;20397;-76
2022/05/21 04:19:32;;;;;;;10.57;3.78;;;;;;;21.19;72.65;97982.78;5436971;26;20043;-76
2022/05/21 04:21:59;;;;;;;10.82;3.65;;;;;;;21.22;72.54;97966.75;5437542;26;20059;-76
2022/05/21 04:24:26;;;;;;;12.37;3.65;;;;;;;21.22;72.22;97969.38;5437318;26;20138;-76
2022/05/21 04:26:53;;;;;;;10.40;3.37;;;;;;;21.47;71.70;97975.97;5436967;26;20381;-76
2022/05/21 04:29:20;;;;;;;10.25;3.30;;;;;;;21.51;71.12;97976.53;5437165;26;20055;-76
2022/05/21 04:31:47;;;;;;;8.82;3.33;;;;;;;21.24;73.36;98011.22;5437501;26;20099;-76
2022/05/21 04:34:14;;;;;;;9.60;3.97;;;;;;;21.46;72.60;98011.06;5436955;26;20130;-76
2022/05/21 04:36:41;;;;;;;8.32;3.50;;;;;;;21.51;73.08;98008.03;5437481;26;20111;-76
2022/05/21 04:39:08;;;;;;;8.30;2.90;;;;;;;20.93;74.46;98026.16;5437287;26;20099;-76
2022/05/21 04:41:36;;;;;;;8.18;3.15;;;;;;;20.48;76.57;98056.13;5437037;26;20111;-75
2022/05/21 04:44:03;;;;;;;10.85;3.30;;;;;;;20.57;76.84;98106.94;5416433;26;20071;-75
2022/05/21 04:46:31;;;;;;;8.32;3.60;;;;;;;20.71;76.69;98137.25;5417000;26;20373;-75
2022/05/21 04:48:58;;;;;;;8.95;2.95;;;;;;;21.49;73.12;98156.97;5436951;26;20110;-75
2022/05/21 04:51:34;;;;;;;8.50;3.62;;;;;;;21.81;71.70;98189.19;5437385;26;20105;-75
2022/05/21 04:54:01;;;;;;;9.95;3.85;;;;;;;21.78;72.53;98209.59;5437068;26;20111;-75
2022/05/21 04:56:29;;;;;;;9.20;3.83;;;;;;;21.69;74.03;98226.13;5437297;26;20086;-75
2022/05/21 04:59:07;;;;;;;10.25;3.85;;;;;;;21.49;74.69;98249.69;5437272;26;20053;-75
2022/05/21 05:01:34;;;;;;;8.80;3.50;;;;;;;21.58;74.21;98279.56;5436994;26;20107;-75
2022/05/21 05:04:01;;;;;;;9.55;3.50;;;;;;;21.35;75.37;98247.37;5437217;26;20119;-76
2022/05/21 05:06:28;;;;;;;8.27;2.62;;;;;;;21.19;74.06;98249.59;5437010;26;20061;-76
2022/05/21 05:08:55;;;;;;;10.65;2.80;;;;;;;21.09;71.48;98236.38;5436742;26;20094;-76
2022/05/21 05:11:23;;;;;;;7.07;2.20;;;;;;;21.23;70.89;98232.63;5437463;26;20135;-76
2022/05/21 05:13:50;;;;;;;6.43;2.10;;;;;;;20.78;73.10;98190.88;5437313;26;20110;-76
2022/05/21 05:16:17;;;;;;;8.18;2.10;;;;;;;20.78;74.62;98177.75;5416413;26;20067;-76
2022/05/21 05:18:44;;;;;;;7.18;2.08;;;;;;;20.72;75.22;98159.91;5416663;26;20046;-76
2022/05/21 05:21:11;;;;;;;4.12;1.90;;;;;;;20.51;76.39;98150.22;5437345;26;20446;-76
2022/05/21 05:23:38;;;;;;;6.40;1.80;;;;;;;20.31;76.73;98137.88;5436904;26;20110;-75
2022/05/21 05:26:05;;;;;;;5.22;2.17;;;;;;;20.28;77.44;98148.59;5437117;26;20450;-75
2022/05/21 05:28:32;;;;;;;6.72;1.80;;;;;;;20.46;76.74;98138.44;5437064;26;20067;-75
2022/05/21 05:30:59;;;;;;;5.60;1.87;;;;;;;20.01;78.20;98124.63;5436585;26;20074;-75
2022/05/21 05:33:26;;;;;;;5.57;2.03;;;;;;;20.14;77.24;98120.91;5437376;26;20153;-75
2022/05/21 05:35:54;;;;;;;6.32;1.90;;;;;;;20.26;77.20;98136.59;5437803;26;20416;-75
2022/05/21 05:38:22;;;;;;;7.93;2.10;;;;;;;20.37;76.50;98160.97;5437136;26;20043;-75
2022/05/21 05:40:50;;;;;;;6.10;2.00;;;;;;;20.66;75.16;98178.78;5437376;26;20077;-75
2022/05/21 05:43:19;;;;;;;6.00;1.80;;;;;;;20.59;75.83;98160.06;5416377;26;20125;-75
2022/05/21 05:45:51;;;;;;;4.72;2.03;;;;;;;20.75;74.89;98165.75;5416732;26;20062;-75
2022/05/21 05:48:19;;;;;;;4.85;1.90;;;;;;;20.83;75.00;98167.72;5437042;26;20074;-75
2022/05/21 05:50:54;;;;;;;4.35;1.80;;;;;;;20.98;73.35;98157.75;5436850;26;20106;-75
2022/05/21 05:53:22;;;;;;;2.78;1.50;;;;;;;20.89;73.99;98164.59;5437069;26;20109;-75
2022/05/21 05:55:49;;;;;;;4.45;1.80;;;;;;;21.21;72.70;98177.63;5437111;26;20389;-76
2022/05/21 06:01:02;;;;;;;5.95;1.50;;;;;;;22.28;67.58;98194.72;5437242;26;20083;-76
2022/05/21 06:03:29;;;;;;;3.70;1.37;;;;;;;22.34;66.10;98199.44;5437033;26;20073;-76
2022/05/21 06:05:56;;;;;;;2.50;1.30;;;;;;;22.26;65.88;98195.84;5436669;26;20061;-76
2022/05/21 06:08:23;;;;;;;2.85;1.30;;;;;;;22.06;66.41;98202.78;5436951;26;20102;-76
2022/05/21 06:10:49;;;;;;;5.82;1.90;;;;;;;22.39;65.28;98220.06;5437117;26;20365;-76
2022/05/21 06:13:16;;;;;;;1.60;1.20;;;;;;;22.06;66.41;98201.03;5436666;26;20116;-76
2022/05/21 06:15:43;;;;;;;4.40;1.40;;;;;;;21.85;67.56;98222.06;5437021;26;20107;-75
2022/05/21 06:18:16;;;;;;;3.47;1.10;;;;;;;21.87;67.84;98217.53;5416298;26;20091;-75
2022/05/21 06:20:44;;;;;;;2.55;1.60;;;;;;;22.00;67.50;98211.19;5437200;26;20066;-75
2022/05/21 06:23:12;;;;;;;2.30;1.15;;;;;;;22.09;67.73;98213.06;5436936;26;20054;-75
2022/05/21 06:25:40;;;;;;;4.53;1.33;;;;;;;22.17;67.94;98218.50;5416334;26;20051;-75
2022/05/21 06:28:07;;;;;;;2.90;1.48;;;;;;;22.26;69.27;98220.31;5436983;26;20421;-75
2022/05/21 06:30:37;;;;;;;3.22;1.45;;;;;;;22.28;70.46;98236.78;5436610;26;20110;-75
2022/05/21 06:33:12;;;;;;;4.90;1.33;;;;;;;21.97;72.31;98235.94;5416177;26;20117;-75
2022/05/21 06:35:39;;;;;;;3.95;1.40;;;;;;;21.80;72.77;98234.78;5416642;26;20131;-75
2022/05/21 06:38:07;;;;;;;3.72;1.60;;;;;;;21.94;71.29;98225.72;5397607;26;20063;-75
2022/05/21 06:40:33;;;;;;;3.55;1.60;;;;;;;21.82;71.90;98227.59;5436447;26;20059;-76
2022/05/21 06:43:00;;;;;;;2.87;1.42;;;;;;;21.77;71.21;98221.06;5436831;26;20448;-76
2022/05/21 06:45:29;;;;;;;4.70;1.83;;;;;;;21.95;70.82;98215.06;5436795;26;20051;-76
2022/05/21 06:48:14;;;;;;;5.12;1.83;;;;;;;22.20;70.61;98224.28;5436319;26;20098;-76
2022/05/21 06:50:41;;;;;;;6.68;1.70;;;;;;;22.43;69.40;98216.19;5436812;26;20066;-76
2022/05/21 06:53:08;;;;;;;4.18;1.70;;;;;;;22.64;68.93;98230.06;5436754;26;20114;-76
2022/05/21 06:55:38;;;;;;;3.33;1.80;;;;;;;22.82;68.18;98230.22;5436342;26;20438;-76
2022/05/21 06:58:05;;;;;;;4.10;1.70;;;;;;;22.87;66.79;98233.31;5436576;26;20475;-76
2022/05/21 07:00:32;;;;;;;5.43;1.87;;;;;;;23.19;65.22;98229.56;5416084;26;20071;-76
2022/05/21 07:02:59;;;;;;;5.93;1.67;;;;;;;23.42;64.35;98230.91;5436806;26;20106;-76
2022/05/21 07:08:19;;;;;;;3.05;1.55;;;;;;;23.45;64.18;98242.94;5437285;26;20098;-76
2022/05/21 07:10:47;;;;;;;5.53;1.87;;;;;;;23.40;65.04;98253.91;5437655;26;20420;-76
2022/05/21 07:13:15;;;;;;;3.47;1.70;;;;;;;23.63;63.25;98264.97;5437403;26;20126;-76
2022/05/21 07:15:42;;;;;;;7.60;2.12;;;;;;;23.73;63.53;98273.69;5437287;26;20102;-76
2022/05/21 07:18:12;;;;;;;5.72;1.92;;;;;;;23.78;61.28;98262.72;5437601;26;20110;-77
2022/05/21 07:20:39;;;;;;;5.05;2.05;;;;;;;24.27;61.12;98264.19;5437750;26;20066;-77
2022/05/21 07:23:06;;;;;;;4.47;1.70;;;;;;;24.70;59.11;98262.72;5437231;26;20069;-76
2022/05/21 07:25:33;;;;;;;4.85;1.98;;;;;;;24.59;59.61;98263.78;5437680;26;20061;-76
2022/05/21 07:28:01;;;;;;;5.25;2.00;;;;;;;24.71;58.09;98259.94;5437431;26;20087;-76
2022/05/21 07:30:29;;;;;;;7.10;2.58;;;;;;;24.28;59.24;98272.94;5436949;26;20119;-76
2022/05/21 07:32:56;;;;;;;7.15;2.17;;;;;;;24.80;58.83;98272.25;5437766;26;20069;-76
2022/05/21 07:35:25;;;;;;;5.37;2.40;;;;;;;24.99;57.42;98275.69;5437174;26;20420;-78
2022/05/21 07:37:52;;;;;;;6.35;2.35;;;;;;;24.99;55.82;98250.16;5417202;26;20106;-76
2022/05/21 07:40:21;;;;;;;4.82;2.30;;;;;;;24.77;57.09;98272.50;5417115;26;20118;-76
2022/05/21 07:42:48;;;;;;;6.87;2.40;;;;;;;24.61;58.29;98260.97;5416859;26;20055;-76
2022/05/21 07:45:17;;;;;;;5.93;2.10;;;;;;;24.48;58.70;98269.25;5437512;26;20530;-76
2022/05/21 07:47:44;;;;;;;5.30;2.30;;;;;;;24.46;59.07;98266.75;5437329;26;20110;-76
2022/05/21 07:50:12;;;;;;;6.03;2.28;;;;;;;24.79;58.01;98264.47;5437155;26;20435;-77
2022/05/21 07:52:39;;;;;;;7.57;2.42;;;;;;;24.97;56.62;98264.47;5437662;26;20118;-77
2022/05/21 07:55:07;;;;;;;6.00;2.37;;;;;;;25.37;56.45;98264.00;5437469;26;20102;-77
2022/05/21 07:57:34;;;;;;;6.12;2.72;;;;;;;24.98;56.77;98259.03;5416697;26;20051;-76
2022/05/21 08:00:07;;;;;;;6.00;2.30;;;;;;;24.79;58.15;98254.75;5437342;26;20114;-76
2022/05/21 08:02:34;;;;;;;8.38;3.00;;;;;;;24.40;58.67;98262.06;5437563;26;20051;-76
2022/05/21 08:05:01;;;;;;;9.63;2.90;;;;;;;24.01;59.57;98263.19;5436985;26;20590;-76
2022/05/21 08:07:28;;;;;;;7.43;2.80;;;;;;;23.44;62.23;98264.97;5437378;26;20056;-76
2022/05/21 08:09:55;;;;;;;6.22;2.83;;;;;;;23.31;63.08;98268.75;5437512;26;20059;-76
2022/05/21 08:12:22;;;;;;;7.25;2.70;;;;;;;23.53;62.70;98264.13;5437149;26;20122;-76
2022/05/21 08:14:55;;;;;;;6.47;2.75;;;;;;;23.88;61.69;98250.34;5437528;26;20110;-77
2022/05/21 08:17:22;;;;;;;9.07;3.28;;;;;;;23.74;62.73;98261.34;5437037;26;20127;-76
2022/05/21 08:19:49;;;;;;;8.77;3.10;;;;;;;24.04;61.94;98269.03;5437814;26;20110;-77
2022/05/21 08:27:47;;;;;;;10.35;2.92;;;;;;;24.15;61.52;98265.38;5437358;26;20051;-76
2022/05/21 08:30:14;;;;;;;9.13;3.10;;;;;;;23.96;61.63;98268.91;5436953;26;20083;-77
2022/05/21 08:32:41;;;;;;;7.90;2.85;;;;;;;23.84;61.61;98273.53;5436992;26;20117;-76
2022/05/21 08:35:08;;;;;;;8.77;3.30;;;;;;;23.93;60.82;98267.41;5437335;26;20114;-76
2022/05/21 08:37:36;;;;;;;6.95;3.12;;;;;;;24.02;61.77;98270.13;5437330;26;20096;-76
2022/05/21 08:40:04;;;;;;;6.25;2.90;;;;;;;23.97;60.72;98270.56;5437051;26;20111;-76
2022/05/21 08:42:38;;;;;;;9.70;3.10;;;;;;;24.30;60.07;98269.16;5437527;26;20054;-77
2022/05/21 08:45:15;;;;;;;7.55;2.97;;;;;;;25.43;57.67;98267.88;5417074;26;20061;-77
2022/05/21 08:47:42;;;;;;;;;;;;;;;26.48;54.58;98270.31;5437166;26;20043;-77
2022/05/21 08:50:20;;;;;;;7.27;2.90;;;;;;;26.24;53.73;98261.25;5437481;26;20300;-77
2022/05/21 08:53:02;;;;;;;6.60;2.90;;;;;;;25.97;51.72;98256.19;5416862;26;20122;-76
2022/05/21 08:55:38;;;;;;;6.00;2.80;;;;;;;26.19;51.57;98247.69;5437468;26;20047;-77
2022/05/21 08:58:16;;;;;;;7.90;3.15;;;;;;;26.39;50.31;98239.53;5437163;26;20046;-77
2022/05/21 09:00:45;;;;;;;7.00;2.80;;;;;;;26.76;48.86;98245.22;5416730;26;20122;-77
2022/05/21 09:03:17;;;;;;;6.53;2.67;;;;;;;26.67;45.28;98240.91;5398045;26;20059;-77
2022/05/21 09:05:48;;;;;;;4.15;2.10;;;;;;;27.07;44.23;98244.62;5417097;26;20130;-77
2022/05/21 09:08:28;;;;;;;8.07;2.67;;;;;;;27.25;40.21;98232.06;5416416;26;20575;-77
2022/05/21 09:10:56;;;;;;;5.00;2.28;;;;;;;27.54;37.15;98236.84;5417028;26;20110;-77
2022/05/21 09:13:50;;;;;;;9.90;2.47;;;;;;;26.98;39.42;98235.81;5437253;26;20464;-77
2022/05/21 09:19:08;;;;;;;10.45;2.47;;;;;;;27.09;40.16;98234.69;5437207;26;20404;-77
2022/05/21 09:21:47;;;;;;;6.10;2.60;;;;;;;27.62;40.06;98238.63;5436947;26;20111;-77
2022/05/21 09:24:35;;;;;;;8.75;2.75;;;;;;;27.99;39.87;98226.63;5417387;26;20375;-78
2022/05/21 09:27:04;;;;;;;5.03;2.40;;;;;;;27.85;40.66;98223.66;5437291;26;20130;-77
2022/05/21 09:29:36;;;;;;;6.57;2.25;;;;;;;27.53;40.66;98229.03;5416270;26;20111;-77
2022/05/21 09:32:24;;;;;;;6.85;2.20;;;;;;;26.25;39.13;98225.87;5437143;26;20098;-77
2022/05/21 09:35:06;;;;;;;10.52;2.30;;;;;;;26.48;39.93;98235.91;5416462;26;20421;-77
2022/05/21 09:37:33;;;;;;;7.18;1.90;;;;;;;27.20;37.91;98234.34;5437229;26;20363;-77
2022/05/21 09:40:00;;;;;;;8.25;2.22;;;;;;;27.51;35.98;98220.41;5437302;26;20396;-77
2022/05/21 09:45:23;;;;;;;6.25;2.10;;;;;;;27.60;35.88;98225.53;5420052;26;20539;-77
2022/05/21 09:48:05;;;;;;;6.65;2.10;;;;;;;27.73;37.17;98219.75;5437073;26;20118;-78
2022/05/21 09:50:53;;;;;;;6.10;2.20;;;;;;;28.08;37.73;98220.31;5436770;26;20069;-77
2022/05/21 09:53:37;;;;;;;6.22;2.00;;;;;;;28.57;36.44;98225.37;5437274;26;20131;-77
2022/05/21 09:56:17;;;;;;;4.28;1.80;;;;;;;28.89;34.96;98225.19;5437008;26;20085;-77
2022/05/21 09:58:45;;;;;;;4.40;1.52;;;;;;;28.67;33.77;98223.31;5437283;26;20051;-77
2022/05/21 10:01:32;;;;;;;5.12;1.52;;;;;;;28.12;32.80;98218.94;5437296;26;20047;-77
2022/05/21 10:04:00;;;;;;;2.20;1.20;;;;;;;27.79;31.45;98227.03;5436820;26;20123;-77
2022/05/21 10:06:30;;;;;;;5.75;1.98;;;;;;;27.38;31.98;98216.47;5437227;26;20122;-77
2022/05/21 10:12:04;;;;;;;5.75;2.10;;;;;;;27.77;33.80;98221.06;5419696;26;20456;-77
2022/05/21 10:14:57;;;;;;;4.80;2.03;;;;;;;27.47;35.02;98211.16;5437235;26;20115;-77
2022/05/21 10:17:31;;;;;;;4.32;1.95;;;;;;;27.50;36.34;98224.91;5436534;26;20099;-77
2022/05/21 10:20:17;;;;;;;4.12;2.28;;;;;;;28.34;35.04;98220.88;5437218;26;20520;-77
2022/05/21 10:22:43;;;;;;;7.30;2.12;;;;;;;28.72;34.35;98223.63;5437189;26;20114;-77
2022/05/21 10:25:16;;;;;;;8.23;2.25;;;;;;;28.72;33.64;98228.94;5436574;26;20127;-77
2022/05/21 10:27:47;;;;;;;6.68;2.35;;;;;;;28.41;34.36;98228.97;5436931;26;20115;-77
2022/05/21 10:30:24;;;;;;;5.80;2.30;;;;;;;28.25;35.53;98222.69;5436916;26;20065;-77
2022/05/21 10:32:57;;;;;;;6.87;2.17;;;;;;;27.95;35.74;98219.00;5416319;26;20118;-77
2022/05/21 10:35:50;;;;;;;5.87;2.60;;;;;;;28.00;35.30;98241.53;5436939;26;20115;-77
2022/05/21 10:38:35;;;;;;;5.57;2.30;;;;;;;27.98;36.71;98238.25;5416249;26;20070;-77
2022/05/21 10:41:17;;;;;;;10.13;2.65;;;;;;;26.89;37.34;98246.56;5436480;26;20448;-76
2022/05/21 10:44:20;;;;;;;6.47;2.47;;;;;;;26.93;37.43;98248.72;5416574;26;20098;-77
2022/05/21 10:46:57;;;;;;;3.72;2.15;;;;;;;27.03;38.42;98233.53;5416160;26;20119;-77
2022/05/21 10:49:54;;;;;;;5.75;2.50;;;;;;;27.16;38.72;98232.22;5436797;26;20472;-77
2022/05/21 10:52:34;;;;;;;8.60;2.50;;;;;;;27.45;39.74;98234.34;5416246;26;20483;-77
2022/05/21 10:55:05;;;;;;;6.78;2.47;;;;;;;27.88;38.37;98226.00;5416791;26;20063;-77
2022/05/21 10:57:48;;;;;;;7.28;2.97;;;;;;;27.94;38.45;98235.91;5436834;26;20434;-77
2022/05/21 11:00:18;;;;;;;7.32;2.60;;;;;;;28.17;37.76;98221.91;5436770;26;20362;-77
2022/05/21 11:03:10;;;;;;;7.70;2.92;;;;;;;28.55;38.21;98222.91;5437931;26;20056;-78
2022/05/21 11:06:07;;;;;;;5.95;2.70;;;;;;;28.92;36.64;98219.50;5437049;26;20090;-78
2022/05/21 11:08:51;;;;;;;9.80;2.97;;;;;;;28.81;37.56;98212.75;5436585;26;20119;-78
2022/05/21 11:11:52;;;;;;;6.87;2.83;;;;;;;28.58;36.16;98203.97;5416375;26;20214;-77
2022/05/21 11:14:41;;;;;;;7.12;2.80;;;;;;;28.37;37.01;98217.84;5416092;26;20055;-77
2022/05/21 11:17:34;;;;;;;5.47;2.65;;;;;;;28.16;36.83;98209.63;5436873;26;20436;-77
2022/05/21 11:20:04;;;;;;;6.82;2.72;;;;;;;27.66;38.61;98226.72;5436440;26;20159;-77
2022/05/21 11:22:59;;;;;;;8.45;2.78;;;;;;;27.88;38.82;98231.31;5436756;26;20107;-77
2022/05/21 11:25:47;;;;;;;5.60;2.50;;;;;;;28.05;38.25;98215.31;5436634;26;20106;-78
2022/05/21 11:28:16;;;;;;;;;;;;;;;28.15;37.18;98203.50;5436248;26;20448;-77
2022/05/21 11:30:43;;;;;;;5.45;2.67;;;;;;;28.09;38.99;98214.00;5436168;26;20006;-77
2022/05/21 11:39:01;;;;;;;6.05;2.67;;;;;;;28.75;37.65;98200.22;5419117;26;20070;-77
2022/05/21 11:41:53;;;;;;;8.27;2.85;;;;;;;28.65;37.43;98207.56;5436299;26;20133;-77
2022/05/21 11:47:06;;;;;;;11.85;3.05;;;;;;;28.63;37.79;98201.63;5436598;26;20102;-77
2022/05/21 11:49:53;;;;;;;9.68;2.87;;;;;;;29.24;36.48;98197.19;5436002;26;20126;-77
2022/05/21 11:52:25;;;;;;;4.50;2.25;;;;;;;29.30;36.69;98201.78;5437017;26;20075;-77
2022/05/21 11:55:18;;;;;;;6.15;2.70;;;;;;;29.06;35.62;98202.00;5437655;26;20441;-78
2022/05/21 11:58:04;;;;;;;6.70;2.70;;;;;;;29.08;36.91;98207.94;5437483;26;20397;-77
2022/05/21 12:00:34;;;;;;;5.12;2.62;;;;;;;29.21;35.09;98204.69;5437724;26;20401;-77
2022/05/21 12:03:06;;;;;;;8.52;3.00;;;;;;;29.34;35.98;98196.91;5437170;26;20051;-77
2022/05/21 12:05:37;;;;;;;9.93;3.12;;;;;;;29.06;36.82;98192.19;5437706;26;20111;-77
2022/05/21 12:08:23;;;;;;;6.30;2.75;;;;;;;29.32;35.68;98205.06;5417085;26;20051;-77
2022/05/21 12:10:55;;;;;;;9.02;2.90;;;;;;;28.75;35.18;98188.75;5437234;26;20111;-77
2022/05/21 12:13:46;;;;;;;5.97;2.42;;;;;;;28.63;35.85;98187.53;5437486;26;20077;-77
2022/05/21 12:16:20;;;;;;;7.07;3.03;;;;;;;29.29;36.20;98181.53;5437265;26;20102;-77
2022/05/21 12:18:51;;;;;;;8.20;2.90;;;;;;;28.95;35.52;98184.66;5437471;26;20106;-77
2022/05/21 12:21:44;;;;;;;6.87;2.62;;;;;;;29.30;35.52;98175.19;5437603;26;20393;-77
2022/05/21 12:24:26;;;;;;;5.32;2.55;;;;;;;29.52;35.86;98167.38;5437059;26;20114;-77